Time;durP1;ratioP1;P1;durP2;ratioP2;P2;SDS_P1;SDS_P2;PMS_P1;PMS_P2;Temp;Humidity;BMP_temperature;BMP_pressure;BME280_temperature;BME280_humidity;BME280_pressure;Samples;Min_cycle;Max_cycle;Signal;HPM_P1;HPM_P2
2022/11/29 04:55:48;;;;;;;;;;;21.10;62.00;;;;;;6101706;23;19989;-63
2022/11/29 04:58:21;;;;;;;;;;;21.20;62.20;;;;;;6099778;23;19920;-63
2022/11/29 05:01:00;;;;;;;;;;;21.20;62.40;;;;;;6125657;23;19912;-63
2022/11/29 05:03:29;;;;;;;;;;;21.10;60.90;;;;;;6100875;23;19916;-64
2022/11/29 05:06:19;;;;;;;;;;;21.00;61.60;;;;;;6126448;23;19937;-63
2022/11/29 05:08:45;;;;;;;;;;;20.90;63.70;;;;;;6109973;23;19905;-63
2022/11/29 05:11:24;;;;;;;;;;;20.90;62.60;;;;;;6125517;23;19976;-63
2022/11/29 05:13:51;;;;;;;;;;;20.80;62.80;;;;;;6125823;23;19905;-63
2022/11/29 05:16:23;;;;;;;;;;;20.90;61.30;;;;;;6125882;23;19917;-63
2022/11/29 05:18:56;;;;;;;;;;;20.90;61.30;;;;;;6125927;23;19976;-63
2022/11/29 05:21:48;;;;;;;;;;;20.90;60.70;;;;;;6125570;23;19912;-63
2022/11/29 05:24:33;;;;;;;;;;;20.90;61.40;;;;;;6081250;23;19905;-63
2022/11/29 05:27:22;;;;;;;;;;;20.80;60.30;;;;;;6125489;23;19905;-63
2022/11/29 05:29:54;;;;;;;;;;;20.80;61.50;;;;;;6098719;23;19935;-64
2022/11/29 05:32:27;;;;;;;;;;;20.70;61.30;;;;;;6099645;23;19909;-64
2022/11/29 05:35:23;;;;;;;;;;;20.70;62.20;;;;;;6125456;23;20280;-64
2022/11/29 05:37:54;;;;;;;;;;;20.80;62.20;;;;;;6125497;23;19924;-64
2022/11/29 05:40:33;;;;;;;;;;;20.80;61.10;;;;;;6125497;23;19963;-63
2022/11/29 05:43:12;;;;;;;;;;;20.80;62.80;;;;;;6125732;23;19912;-64
2022/11/29 05:45:43;;;;;;;;;;;20.90;62.70;;;;;;6099243;23;19909;-63
2022/11/29 05:48:09;;;;;;;;;;;20.80;60.90;;;;;;6097797;23;20342;-64
2022/11/29 05:50:39;;;;;;;;;;;20.80;60.90;;;;;;6124453;23;20261;-64
2022/11/29 05:53:05;;;;;;;;;;;20.80;62.60;;;;;;6126308;23;19905;-64
2022/11/29 05:55:35;;;;;;;;;;;20.80;61.10;;;;;;6125406;23;19921;-63
2022/11/29 05:58:03;;;;;;;;;;;20.80;60.70;;;;;;6124683;23;19905;-64
2022/11/29 06:00:56;;;;;;;;;;;20.80;60.30;;;;;;6099926;23;20309;-64
2022/11/29 06:03:30;;;;;;;;;;;20.70;61.20;;;;;;6119965;23;19905;-64
2022/11/29 06:05:59;;;;;;;;;;;20.60;60.40;;;;;;6099746;23;20110;-64
2022/11/29 06:08:41;;;;;;;;;;;20.50;60.70;;;;;;6098405;23;20313;-64
2022/11/29 06:11:13;;;;;;;;;;;20.50;61.20;;;;;;6124917;23;19928;-64
2022/11/29 06:13:58;;;;;;;;;;;20.40;60.60;;;;;;6099447;23;19916;-64
2022/11/29 06:16:24;;;;;;;;;;;20.40;62.00;;;;;;6125082;23;19920;-63
2022/11/29 06:19:10;;;;;;;;;;;20.40;60.30;;;;;;6125133;23;19916;-64
2022/11/29 06:21:39;;;;;;;;;;;20.30;59.60;;;;;;6125418;23;19956;-64
2022/11/29 06:24:08;;;;;;;;;;;20.20;60.50;;;;;;6099006;23;19905;-64
2022/11/29 06:26:43;;;;;;;;;;;20.20;59.60;;;;;;6099554;23;19998;-64
2022/11/29 06:29:22;;;;;;;;;;;20.20;59.80;;;;;;6099436;23;19909;-64
2022/11/29 06:31:55;;;;;;;;;;;20.20;61.00;;;;;;6125211;23;19905;-64
2022/11/29 06:34:45;;;;;;;;;;;20.20;60.80;;;;;;6099291;23;19905;-64
2022/11/29 06:37:16;;;;;;;;;;;20.20;60.40;;;;;;6109415;23;19913;-65
2022/11/29 06:39:43;;;;;;;;;;;20.20;60.60;;;;;;6099114;23;20073;-64
2022/11/29 06:42:09;;;;;;;;;;;20.30;59.80;;;;;;6123510;23;19909;-64
2022/11/29 06:44:45;;;;;;;;;;;20.20;59.40;;;;;;5094780;27;19926;-63
2022/11/29 06:47:30;;;;;;;;;;;20.10;60.20;;;;;;5086536;28;19916;-66
2022/11/29 06:50:17;;;;;;;;;;;20.10;60.70;;;;;;5114738;27;19917;-63
2022/11/29 06:52:49;;;;;;;;;;;20.10;60.60;;;;;;5075011;28;19963;-63
2022/11/29 06:55:22;;;;;;;;;;;20.00;60.70;;;;;;5071039;28;19959;-63
2022/11/29 06:58:06;;;;;;;;;;;20.00;61.60;;;;;;5067829;28;19948;-63
2022/11/29 07:00:36;;;;;;;;;;;20.00;62.10;;;;;;5052717;28;19920;-66
2022/11/29 07:03:19;;;;;;;;;;;19.90;64.00;;;;;;5066175;28;19924;-63
2022/11/29 07:05:45;;;;;;;;;;;19.90;61.90;;;;;;5081640;28;19917;-64
2022/11/29 07:08:14;;;;;;;;;;;19.80;62.50;;;;;;5066081;28;19928;-64
2022/11/29 07:10:41;;;;;;;;;;;19.70;61.00;;;;;;5081573;28;19944;-63
2022/11/29 07:13:09;;;;;;;;;;;19.70;62.40;;;;;;5081729;28;19956;-64
2022/11/29 07:15:36;;;;;;;;;;;19.70;63.50;;;;;;5066115;28;20318;-64
2022/11/29 07:18:22;;;;;;;;;;;19.60;64.20;;;;;;5072795;28;20473;-64
2022/11/29 07:20:55;;;;;;;;;;;19.60;62.60;;;;;;5052305;28;19975;-64
2022/11/29 07:23:30;;;;;;;;;;;19.60;63.50;;;;;;5065566;28;19927;-63
2022/11/29 07:25:57;;;;;;;;;;;19.70;64.10;;;;;;5065347;28;20434;-64
2022/11/29 07:28:24;;;;;;;;;;;19.60;63.50;;;;;;5065403;28;19909;-65
2022/11/29 07:30:52;;;;;;;;;;;19.60;63.80;;;;;;5067605;28;19917;-64
2022/11/29 07:33:28;;;;;;;;;;;19.60;64.10;;;;;;5067164;28;19920;-64
2022/11/29 07:36:08;;;;;;;;;;;19.50;63.20;;;;;;5067968;28;20393;-64
2022/11/29 07:38:35;;;;;;;;;;;19.50;63.40;;;;;;5058696;28;19912;-64
2022/11/29 07:41:05;;;;;;;;;;;19.40;62.60;;;;;;5065804;28;20368;-65
2022/11/29 07:43:43;;;;;;;;;;;19.40;63.40;;;;;;5063168;28;19924;-64
2022/11/29 07:46:10;;;;;;;;;;;19.40;63.00;;;;;;5061751;28;19923;-64
2022/11/29 07:48:36;;;;;;;;;;;19.40;62.80;;;;;;5072437;28;20359;-63
2022/11/29 07:51:03;;;;;;;;;;;19.30;62.50;;;;;;5076756;28;19915;-64
2022/11/29 07:53:30;;;;;;;;;;;19.40;62.50;;;;;;5074065;28;19958;-64
2022/11/29 07:55:56;;;;;;;;;;;19.40;63.50;;;;;;5057121;28;20406;-65
2022/11/29 07:58:23;;;;;;;;;;;19.40;63.50;;;;;;5057548;28;19938;-64
2022/11/29 08:00:50;;;;;;;;;;;19.40;63.10;;;;;;5037964;28;19917;-63
2022/11/29 08:03:16;;;;;;;;;;;19.40;62.30;;;;;;5051906;28;20027;-65
2022/11/29 08:05:46;;;;;;;;;;;19.40;62.30;;;;;;5052415;28;20339;-65
2022/11/29 08:08:12;;;;;;;;;;;19.40;62.60;;;;;;5051914;28;19925;-64
2022/11/29 08:10:39;;;;;;;;;;;19.40;62.90;;;;;;5052556;28;19913;-65
2022/11/29 08:13:06;;;;;;;;;;;19.40;63.40;;;;;;5052386;28;19913;-64
2022/11/29 08:15:32;;;;;;;;;;;19.40;62.90;;;;;;5051882;28;19917;-65
2022/11/29 08:17:59;;;;;;;;;;;19.30;63.00;;;;;;5051260;28;19913;-65
2022/11/29 08:20:25;;;;;;;;;;;19.40;64.20;;;;;;5051717;28;19916;-65
2022/11/29 08:22:55;;;;;;;;;;;19.40;64.10;;;;;;5051758;28;19952;-65
2022/11/29 08:25:22;;;;;;;;;;;19.40;63.00;;;;;;5051691;28;19956;-64
2022/11/29 08:27:50;;;;;;;;;;;19.30;63.30;;;;;;5051845;28;19913;-65
2022/11/29 08:30:23;;;;;;;;;;;19.30;63.60;;;;;;5051544;28;19913;-65
2022/11/29 08:32:50;;;;;;;;;;;19.30;63.30;;;;;;5052171;28;19943;-64
2022/11/29 08:35:17;;;;;;;;;;;19.20;63.10;;;;;;5051819;28;20328;-63
2022/11/29 08:37:43;;;;;;;;;;;19.20;63.70;;;;;;5066693;28;20452;-63
2022/11/29 08:40:10;;;;;;;;;;;19.20;63.20;;;;;;5051135;28;19960;-63
2022/11/29 08:42:37;;;;;;;;;;;19.20;63.30;;;;;;5050679;28;20282;-65
2022/11/29 08:45:05;;;;;;;;;;;19.20;64.00;;;;;;5051174;28;19916;-64
2022/11/29 08:47:37;;;;;;;;;;;19.20;63.90;;;;;;5050858;28;20285;-64
2022/11/29 08:50:11;;;;;;;;;;;19.20;63.50;;;;;;5051033;28;19931;-63
2022/11/29 08:55:24;;;;;;;;;;;19.20;65.00;;;;;;5051349;28;19963;-64
2022/11/29 08:57:50;;;;;;;;;;;19.20;64.60;;;;;;5048817;28;20389;-63
2022/11/29 09:00:17;;;;;;;;;;;19.20;64.10;;;;;;5037104;28;19921;-63
2022/11/29 09:02:44;;;;;;;;;;;19.20;63.90;;;;;;5051425;28;19928;-62
2022/11/29 09:05:10;;;;;;;;;;;19.20;64.60;;;;;;5050818;28;20008;-62
2022/11/29 09:07:37;;;;;;;;;;;19.20;63.60;;;;;;5049325;28;20366;-62
2022/11/29 09:10:06;;;;;;;;;;;19.20;63.80;;;;;;5050905;28;19913;-62
2022/11/29 09:12:36;;;;;;;;;;;19.20;63.60;;;;;;5050604;28;19974;-62
2022/11/29 09:15:06;;;;;;;;;;;19.20;63.40;;;;;;5050977;28;19920;-62
2022/11/29 09:17:33;;;;;;;;;;;19.20;64.20;;;;;;5065546;28;19917;-62
2022/11/29 09:19:59;;;;;;;;;;;19.20;64.80;;;;;;5050537;28;19913;-63
2022/11/29 09:22:26;;;;;;;;;;;19.20;64.70;;;;;;5050460;28;19913;-63
2022/11/29 09:24:52;;;;;;;;;;;19.20;64.80;;;;;;5050532;28;19960;-62
2022/11/29 09:27:19;;;;;;;;;;;19.20;63.70;;;;;;5050342;28;19923;-62
2022/11/29 09:29:46;;;;;;;;;;;19.10;63.70;;;;;;5050647;28;19966;-63
2022/11/29 09:32:12;;;;;;;;;;;19.10;63.50;;;;;;5066020;28;19912;-64
2022/11/29 09:34:40;;;;;;;;;;;19.10;63.00;;;;;;5050528;28;19920;-64
2022/11/29 09:37:07;;;;;;;;;;;19.10;63.50;;;;;;5051986;28;20267;-64
2022/11/29 09:39:34;;;;;;;;;;;19.20;63.40;;;;;;5051214;28;19960;-64
2022/11/29 09:42:05;;;;;;;;;;;19.10;62.70;;;;;;5052494;28;19954;-64
2022/11/29 09:44:47;;;;;;;;;;;19.00;62.80;;;;;;5067879;28;19920;-64
2022/11/29 09:47:25;;;;;;;;;;;19.00;63.30;;;;;;5052895;28;20023;-64
2022/11/29 09:49:54;;;;;;;;;;;19.10;62.90;;;;;;5052306;28;19966;-63
2022/11/29 09:52:36;;;;;;;;;;;19.10;63.00;;;;;;5061356;28;19988;-63
2022/11/29 09:55:03;;;;;;;;;;;19.00;62.30;;;;;;5048229;28;20750;-64
2022/11/29 09:57:29;;;;;;;;;;;19.00;62.60;;;;;;5049820;28;19912;-63
2022/11/29 10:00:01;;;;;;;;;;;19.00;62.20;;;;;;5053043;28;19920;-64
2022/11/29 10:02:30;;;;;;;;;;;19.00;61.10;;;;;;5080613;28;19909;-63
2022/11/29 10:05:06;;;;;;;;;;;19.00;60.20;;;;;;5065086;28;19917;-63
2022/11/29 10:07:33;;;;;;;;;;;19.00;58.60;;;;;;5061512;28;20366;-64
2022/11/29 10:10:16;;;;;;;;;;;19.00;58.90;;;;;;5039551;28;19917;-65
2022/11/29 10:12:48;;;;;;;;;;;19.00;57.80;;;;;;5048355;28;19959;-65
2022/11/29 10:15:27;;;;;;;;;;;19.00;58.30;;;;;;5046096;28;19921;-65
2022/11/29 10:17:55;;;;;;;;;;;19.00;58.20;;;;;;5057734;28;19917;-65
2022/11/29 10:20:22;;;;;;;;;;;19.00;57.90;;;;;;5047678;28;20007;-65
2022/11/29 10:23:01;;;;;;;;;;;19.00;57.40;;;;;;5051400;28;19917;-65
2022/11/29 10:25:38;;;;;;;;;;;19.00;56.40;;;;;;5043143;28;19921;-65
2022/11/29 10:28:05;;;;;;;;;;;19.00;57.50;;;;;;5080672;28;19924;-65
2022/11/29 10:30:32;;;;;;;;;;;19.00;56.40;;;;;;5047962;28;19913;-65
2022/11/29 10:32:59;;;;;;;;;;;19.00;55.30;;;;;;5053823;28;19935;-65
2022/11/29 10:35:26;;;;;;;;;;;19.00;55.50;;;;;;5055134;28;20363;-65
2022/11/29 10:37:53;;;;;;;;;;;19.10;55.70;;;;;;5048767;28;19916;-65
2022/11/29 10:40:21;;;;;;;;;;;19.00;54.60;;;;;;5049014;28;20010;-65
2022/11/29 10:42:47;;;;;;;;;;;19.00;54.70;;;;;;5059140;28;19939;-65
2022/11/29 10:45:17;;;;;;;;;;;18.90;54.40;;;;;;5049265;28;19915;-64
2022/11/29 10:47:44;;;;;;;;;;;19.00;54.70;;;;;;5080959;28;20375;-64
2022/11/29 10:50:23;;;;;;;;;;;18.90;54.90;;;;;;5048798;28;19924;-64
2022/11/29 10:52:50;;;;;;;;;;;19.00;55.40;;;;;;5055920;28;19909;-65
2022/11/29 10:55:17;;;;;;;;;;;19.00;55.10;;;;;;5047656;28;20035;-65
2022/11/29 10:58:10;;;;;;;;;;;19.00;55.30;;;;;;5048350;28;19924;-65
2022/11/29 11:00:43;;;;;;;;;;;19.00;55.50;;;;;;5036076;28;20022;-64
2022/11/29 11:03:17;;;;;;;;;;;19.00;53.90;;;;;;5051361;28;19959;-64
2022/11/29 11:05:55;;;;;;;;;;;18.90;53.20;;;;;;5049876;28;19912;-64
2022/11/29 11:08:21;;;;;;;;;;;18.90;53.70;;;;;;5047417;28;19909;-64
2022/11/29 11:10:52;;;;;;;;;;;19.00;53.90;;;;;;5048043;28;20442;-64
2022/11/29 11:13:26;;;;;;;;;;;19.00;53.50;;;;;;5049128;28;20299;-66
2022/11/29 11:16:14;;;;;;;;;;;19.00;54.30;;;;;;5052436;28;19966;-65
2022/11/29 11:18:40;;;;;;;;;;;19.00;54.10;;;;;;5049204;28;19916;-64
2022/11/29 11:21:08;;;;;;;;;;;19.00;53.80;;;;;;5052781;28;19959;-64
2022/11/29 11:23:38;;;;;;;;;;;19.00;54.00;;;;;;5049708;28;19984;-64
2022/11/29 11:26:05;;;;;;;;;;;19.00;53.70;;;;;;5049292;28;19917;-64
2022/11/29 11:28:38;;;;;;;;;;;19.00;55.00;;;;;;5049254;28;19916;-64
2022/11/29 11:31:07;;;;;;;;;;;19.00;54.20;;;;;;5054192;28;19923;-64
2022/11/29 11:33:34;;;;;;;;;;;18.90;53.60;;;;;;5053497;28;19917;-64
2022/11/29 11:36:03;;;;;;;;;;;18.90;54.60;;;;;;5053989;28;20333;-64
2022/11/29 11:38:30;;;;;;;;;;;18.90;54.60;;;;;;5054467;28;19948;-64
2022/11/29 11:41:06;;;;;;;;;;;19.00;54.90;;;;;;5055104;28;20313;-64
2022/11/29 11:43:32;;;;;;;;;;;18.90;54.50;;;;;;5054373;28;20338;-65
2022/11/29 11:45:59;;;;;;;;;;;19.00;54.60;;;;;;5054606;28;19913;-65
2022/11/29 11:48:26;;;;;;;;;;;19.00;54.30;;;;;;5055097;28;19951;-64
2022/11/29 11:50:53;;;;;;;;;;;18.90;54.20;;;;;;5053737;28;19920;-62
2022/11/29 11:53:21;;;;;;;;;;;19.00;55.00;;;;;;5055606;28;20462;-65
2022/11/29 11:56:06;;;;;;;;;;;19.00;54.70;;;;;;5054169;28;20290;-63
2022/11/29 11:58:32;;;;;;;;;;;18.90;55.20;;;;;;5052069;28;19963;-63
2022/11/29 12:01:19;;;;;;;;;;;19.00;54.00;;;;;;5038536;28;19944;-63
2022/11/29 12:03:49;;;;;;;;;;;18.90;54.60;;;;;;5054743;28;20293;-64
2022/11/29 12:06:15;;;;;;;;;;;19.00;54.70;;;;;;5052042;28;19917;-64
2022/11/29 12:08:42;;;;;;;;;;;18.90;54.90;;;;;;5052975;28;20042;-64
2022/11/29 12:11:09;;;;;;;;;;;18.90;53.70;;;;;;5054532;28;19909;-64
2022/11/29 12:13:38;;;;;;;;;;;18.90;54.30;;;;;;5069447;28;19966;-64
2022/11/29 12:16:07;;;;;;;;;;;18.90;54.60;;;;;;5086422;28;20070;-64
2022/11/29 12:19:02;;;;;;;;;;;18.90;54.80;;;;;;5054396;28;19909;-64
2022/11/29 12:21:31;;;;;;;;;;;18.80;55.50;;;;;;5049326;28;19957;-64
2022/11/29 12:24:13;;;;;;;;;;;18.80;55.40;;;;;;5069621;28;19970;-64
2022/11/29 12:26:40;;;;;;;;;;;18.90;55.70;;;;;;5054366;28;19941;-64
2022/11/29 12:29:13;;;;;;;;;;;18.90;56.10;;;;;;5053284;28;19908;-64
2022/11/29 12:31:54;;;;;;;;;;;18.80;54.80;;;;;;5054049;28;19913;-64
2022/11/29 12:34:27;;;;;;;;;;;18.80;54.90;;;;;;5054062;28;19909;-64
2022/11/29 12:36:54;;;;;;;;;;;18.80;54.70;;;;;;5069390;28;19917;-64
2022/11/29 12:39:21;;;;;;;;;;;18.80;54.60;;;;;;5054076;28;20317;-64
2022/11/29 12:41:47;;;;;;;;;;;18.80;54.60;;;;;;5054189;28;20374;-64
2022/11/29 12:44:32;;;;;;;;;;;18.80;54.50;;;;;;5053482;28;19970;-64
2022/11/29 12:47:03;;;;;;;;;;;18.80;55.20;;;;;;5053935;28;19913;-64
2022/11/29 12:49:43;;;;;;;;;;;18.80;55.90;;;;;;5054043;28;19977;-64
2022/11/29 12:52:16;;;;;;;;;;;18.70;55.50;;;;;;5053923;28;19995;-64
2022/11/29 12:54:55;;;;;;;;;;;18.80;55.20;;;;;;5053587;28;19909;-64
2022/11/29 12:57:27;;;;;;;;;;;18.80;56.50;;;;;;5053589;28;19916;-64
2022/11/29 13:00:00;;;;;;;;;;;18.70;56.40;;;;;;5042453;28;19909;-64
2022/11/29 13:02:26;;;;;;;;;;;18.70;56.90;;;;;;5084620;28;19909;-63
2022/11/29 13:04:57;;;;;;;;;;;18.80;58.20;;;;;;5054102;28;20019;-64
2022/11/29 13:07:24;;;;;;;;;;;18.80;58.10;;;;;;5053151;28;19920;-64
2022/11/29 13:10:00;;;;;;;;;;;18.70;57.50;;;;;;5053388;28;20011;-64
2022/11/29 13:12:36;;;;;;;;;;;18.80;57.50;;;;;;5069018;28;19948;-64
2022/11/29 13:15:05;;;;;;;;;;;18.80;57.80;;;;;;5069071;28;19908;-64
2022/11/29 13:17:35;;;;;;;;;;;18.80;58.60;;;;;;5052986;28;19916;-64
2022/11/29 13:20:03;;;;;;;;;;;18.80;59.20;;;;;;5053218;28;19909;-64
2022/11/29 13:22:43;;;;;;;;;;;18.80;59.20;;;;;;5051998;28;19908;-64
2022/11/29 13:25:28;;;;;;;;;;;18.80;58.50;;;;;;5053521;28;19920;-64
2022/11/29 13:27:59;;;;;;;;;;;18.80;58.10;;;;;;5067885;28;19955;-64
2022/11/29 13:30:26;;;;;;;;;;;18.80;58.70;;;;;;5068726;28;20371;-64
2022/11/29 13:32:56;;;;;;;;;;;18.80;59.00;;;;;;5053179;28;19924;-64
2022/11/29 13:35:32;;;;;;;;;;;18.80;59.50;;;;;;5052914;28;20396;-64
2022/11/29 13:38:01;;;;;;;;;;;18.80;59.40;;;;;;5052914;28;20034;-64
2022/11/29 13:40:39;;;;;;;;;;;18.80;60.40;;;;;;5068706;28;19916;-63
2022/11/29 13:43:18;;;;;;;;;;;18.80;60.60;;;;;;5067955;28;20058;-64
2022/11/29 13:46:03;;;;;;;;;;;18.80;61.10;;;;;;5084533;28;19976;-64
2022/11/29 13:48:36;;;;;;;;;;;18.80;60.70;;;;;;5053033;28;20382;-64
2022/11/29 13:51:21;;;;;;;;;;;18.80;61.00;;;;;;5051848;28;20251;-64
2022/11/29 13:53:47;;;;;;;;;;;18.80;61.90;;;;;;5049639;28;19913;-64
2022/11/29 13:56:24;;;;;;;;;;;18.80;61.90;;;;;;5052710;28;19909;-64
2022/11/29 13:58:54;;;;;;;;;;;18.80;61.30;;;;;;5037077;28;19971;-64
2022/11/29 14:01:22;;;;;;;;;;;18.80;61.20;;;;;;5042016;28;19970;-64
2022/11/29 14:04:08;;;;;;;;;;;18.80;61.40;;;;;;5067565;28;19927;-64
2022/11/29 14:06:36;;;;;;;;;;;18.80;61.70;;;;;;5055116;28;19912;-64
2022/11/29 14:09:22;;;;;;;;;;;18.80;61.60;;;;;;5052545;28;20317;-64
2022/11/29 14:11:51;;;;;;;;;;;18.80;61.80;;;;;;5067806;28;19909;-64
2022/11/29 14:14:22;;;;;;;;;;;18.80;61.00;;;;;;5051040;28;20263;-64
2022/11/29 14:16:49;;;;;;;;;;;18.70;61.20;;;;;;5051427;28;19952;-64
2022/11/29 14:19:22;;;;;;;;;;;18.70;61.00;;;;;;5083307;28;19924;-64
2022/11/29 14:22:00;;;;;;;;;;;18.80;61.20;;;;;;5042268;28;19909;-64
2022/11/29 14:24:36;;;;;;;;;;;18.70;61.50;;;;;;5052327;28;19924;-64
2022/11/29 14:27:06;;;;;;;;;;;18.70;61.70;;;;;;5052342;28;20488;-64
2022/11/29 14:29:53;;;;;;;;;;;18.70;61.60;;;;;;5052912;28;19913;-64
2022/11/29 14:32:22;;;;;;;;;;;18.70;61.10;;;;;;5052504;28;20367;-64
2022/11/29 14:34:57;;;;;;;;;;;18.70;61.20;;;;;;5067480;28;19982;-64
2022/11/29 14:37:33;;;;;;;;;;;18.70;60.90;;;;;;5051738;28;19921;-64
2022/11/29 14:40:00;;;;;;;;;;;18.70;61.10;;;;;;5067525;28;20012;-64
2022/11/29 14:42:27;;;;;;;;;;;18.70;60.40;;;;;;5052158;28;19905;-64
2022/11/29 14:44:57;;;;;;;;;;;18.70;60.50;;;;;;5067080;28;19928;-64
2022/11/29 14:47:33;;;;;;;;;;;18.70;60.90;;;;;;5066809;28;20340;-64
2022/11/29 14:50:00;;;;;;;;;;;18.70;61.20;;;;;;5052015;28;19961;-64
2022/11/29 14:52:27;;;;;;;;;;;18.70;61.20;;;;;;5052075;28;19954;-64
2022/11/29 14:54:59;;;;;;;;;;;18.70;62.50;;;;;;5067154;28;19908;-64
2022/11/29 14:57:44;;;;;;;;;;;18.70;63.20;;;;;;5066624;28;19991;-64
2022/11/29 15:00:13;;;;;;;;;;;18.80;62.60;;;;;;5044827;28;20329;-64
2022/11/29 15:02:56;;;;;;;;;;;18.70;62.60;;;;;;5037939;28;19909;-64
2022/11/29 15:05:23;;;;;;;;;;;18.70;62.60;;;;;;5068940;28;19928;-64
2022/11/29 15:07:51;;;;;;;;;;;18.70;63.10;;;;;;5055845;28;19960;-64
2022/11/29 15:10:19;;;;;;;;;;;18.70;63.50;;;;;;5055918;28;20008;-64
2022/11/29 15:12:45;;;;;;;;;;;18.70;62.80;;;;;;5070918;28;19954;-64
2022/11/29 15:15:27;;;;;;;;;;;18.70;63.50;;;;;;5071207;28;19916;-64
2022/11/29 15:17:55;;;;;;;;;;;18.70;63.20;;;;;;5055317;28;20003;-64
2022/11/29 15:20:31;;;;;;;;;;;18.70;63.80;;;;;;5071191;28;19909;-64
2022/11/29 15:22:59;;;;;;;;;;;18.70;63.50;;;;;;5055369;28;20263;-64
2022/11/29 15:25:29;;;;;;;;;;;18.70;62.80;;;;;;5070561;28;20003;-64
2022/11/29 15:27:57;;;;;;;;;;;18.70;62.40;;;;;;5055539;28;19952;-64
2022/11/29 15:30:34;;;;;;;;;;;18.70;63.20;;;;;;5055582;28;19999;-64
2022/11/29 15:33:01;;;;;;;;;;;18.70;63.70;;;;;;5055979;28;20409;-64
2022/11/29 15:35:28;;;;;;;;;;;18.70;63.50;;;;;;5055400;28;19923;-64
2022/11/29 15:37:54;;;;;;;;;;;18.70;63.70;;;;;;5070704;28;19958;-64
2022/11/29 15:40:22;;;;;;;;;;;18.70;62.00;;;;;;5070777;28;19909;-64
2022/11/29 15:42:53;;;;;;;;;;;18.70;62.60;;;;;;5054729;28;19913;-64
2022/11/29 15:45:27;;;;;;;;;;;18.70;62.20;;;;;;5054903;28;19917;-64
2022/11/29 15:47:53;;;;;;;;;;;18.70;62.00;;;;;;5070602;28;19913;-64
2022/11/29 15:50:26;;;;;;;;;;;18.70;62.00;;;;;;5055056;28;19909;-64
2022/11/29 15:52:54;;;;;;;;;;;18.70;62.70;;;;;;5055357;28;19960;-64
2022/11/29 15:55:21;;;;;;;;;;;18.70;63.30;;;;;;5054850;28;19909;-64
2022/11/29 15:57:48;;;;;;;;;;;18.60;63.60;;;;;;5070608;28;19913;-64
2022/11/29 16:00:16;;;;;;;;;;;18.60;62.40;;;;;;5040986;28;20000;-64
2022/11/29 16:02:47;;;;;;;;;;;18.60;62.10;;;;;;5054947;28;19913;-64
2022/11/29 16:05:15;;;;;;;;;;;18.60;62.30;;;;;;5054746;28;19910;-64
2022/11/29 16:07:42;;;;;;;;;;;18.60;62.70;;;;;;5053457;28;19913;-63
2022/11/29 16:10:13;;;;;;;;;;;18.50;62.70;;;;;;5054798;28;19951;-63
2022/11/29 16:12:53;;;;;;;;;;;18.50;63.80;;;;;;5070053;28;19915;-64
2022/11/29 16:15:27;;;;;;;;;;;18.50;62.60;;;;;;5053977;28;19915;-64
2022/11/29 16:17:53;;;;;;;;;;;18.50;63.70;;;;;;5053522;28;20278;-64
2022/11/29 16:20:22;;;;;;;;;;;18.40;63.70;;;;;;5054774;28;19935;-64
2022/11/29 16:23:02;;;;;;;;;;;18.30;63.60;;;;;;5054513;28;19962;-64
2022/11/29 16:25:29;;;;;;;;;;;18.30;64.40;;;;;;5054114;28;19976;-64
2022/11/29 16:27:55;;;;;;;;;;;18.30;67.40;;;;;;5054316;28;19962;-64
2022/11/29 16:30:23;;;;;;;;;;;18.20;68.50;;;;;;5054375;28;19916;-64
2022/11/29 16:32:54;;;;;;;;;;;18.10;70.00;;;;;;5069882;28;19972;-64
2022/11/29 16:35:21;;;;;;;;;;;18.00;70.70;;;;;;5069285;28;19943;-64
2022/11/29 16:37:48;;;;;;;;;;;18.00;70.70;;;;;;5069318;28;20118;-64
2022/11/29 16:40:25;;;;;;;;;;;17.90;70.60;;;;;;5054242;28;19912;-64
2022/11/29 16:43:14;;;;;;;;;;;17.90;70.70;;;;;;5054034;28;19915;-64
2022/11/29 16:45:41;;;;;;;;;;;17.90;70.70;;;;;;5061969;28;19979;-64
2022/11/29 16:48:26;;;;;;;;;;;17.90;71.70;;;;;;5053651;28;20004;-64
2022/11/29 16:51:13;;;;;;;;;;;17.80;70.80;;;;;;5053694;28;20012;-64
2022/11/29 16:53:46;;;;;;;;;;;17.80;70.60;;;;;;5040244;28;19944;-63
2022/11/29 16:56:13;;;;;;;;;;;17.80;69.80;;;;;;5053594;28;19999;-64
2022/11/29 16:58:40;;;;;;;;;;;17.80;70.20;;;;;;5052618;28;19913;-64
2022/11/29 17:01:16;;;;;;;;;;;17.80;70.80;;;;;;5073224;28;19940;-64
2022/11/29 17:03:43;;;;;;;;;;;17.70;72.00;;;;;;5053806;28;20289;-64
2022/11/29 17:06:13;;;;;;;;;;;17.60;71.30;;;;;;5053839;28;19913;-64
2022/11/29 17:08:40;;;;;;;;;;;17.70;71.30;;;;;;5053749;28;19999;-64
2022/11/29 17:11:06;;;;;;;;;;;17.70;71.00;;;;;;5053737;28;19916;-64
2022/11/29 17:13:33;;;;;;;;;;;17.70;71.10;;;;;;5053778;28;19909;-64
2022/11/29 17:15:59;;;;;;;;;;;17.70;70.40;;;;;;5053411;28;19916;-64
2022/11/29 17:18:26;;;;;;;;;;;17.70;70.80;;;;;;5053409;28;19915;-64
2022/11/29 17:20:54;;;;;;;;;;;17.70;70.90;;;;;;5053358;28;20381;-64
2022/11/29 17:23:21;;;;;;;;;;;17.70;69.90;;;;;;5053472;28;19975;-64
2022/11/29 17:25:57;;;;;;;;;;;17.80;69.60;;;;;;5053286;28;19917;-64
2022/11/29 17:28:23;;;;;;;;;;;17.80;69.40;;;;;;5052131;28;20436;-64
2022/11/29 17:30:50;;;;;;;;;;;17.80;69.50;;;;;;5052390;28;19979;-64
2022/11/29 17:33:17;;;;;;;;;;;17.80;69.60;;;;;;5049648;28;19990;-64
2022/11/29 17:35:44;;;;;;;;;;;17.80;69.10;;;;;;5052759;28;19913;-64
2022/11/29 17:38:11;;;;;;;;;;;17.80;69.00;;;;;;5053320;28;19909;-64
2022/11/29 17:40:38;;;;;;;;;;;17.80;69.00;;;;;;5053259;28;19955;-64
2022/11/29 17:43:04;;;;;;;;;;;17.80;69.30;;;;;;5067965;28;20003;-64
2022/11/29 17:45:31;;;;;;;;;;;17.80;68.70;;;;;;5044232;28;19921;-63
2022/11/29 17:48:00;;;;;;;;;;;17.80;68.80;;;;;;5038674;28;20001;-64
2022/11/29 17:50:27;;;;;;;;;;;17.80;69.00;;;;;;5038720;28;19919;-64
2022/11/29 17:52:53;;;;;;;;;;;17.80;68.90;;;;;;5045340;28;19909;-64
2022/11/29 17:55:21;;;;;;;;;;;17.80;69.00;;;;;;5052063;28;19955;-64
2022/11/29 17:57:47;;;;;;;;;;;17.90;69.60;;;;;;5051660;28;19908;-64
2022/11/29 18:00:15;;;;;;;;;;;17.80;68.60;;;;;;5058817;28;20394;-64
2022/11/29 18:02:41;;;;;;;;;;;17.80;68.90;;;;;;5043597;28;19916;-64
2022/11/29 18:05:08;;;;;;;;;;;17.80;69.90;;;;;;5039561;28;19917;-64
2022/11/29 18:07:56;;;;;;;;;;;17.80;69.00;;;;;;5052849;28;19913;-64
2022/11/29 18:10:21;;;;;;;;;;;17.80;69.20;;;;;;5052804;28;19915;-64
2022/11/29 18:12:47;;;;;;;;;;;17.80;68.00;;;;;;5052805;28;19962;-64
2022/11/29 18:15:14;;;;;;;;;;;17.80;71.00;;;;;;5052833;28;19916;-64
2022/11/29 18:17:40;;;;;;;;;;;17.80;72.60;;;;;;5052595;28;19912;-63
2022/11/29 18:20:07;;;;;;;;;;;17.80;73.00;;;;;;5038380;28;19935;-63
2022/11/29 18:22:34;;;;;;;;;;;17.70;74.00;;;;;;5052393;28;20263;-63
2022/11/29 18:25:00;;;;;;;;;;;17.70;74.20;;;;;;5052148;28;19979;-63
2022/11/29 18:27:27;;;;;;;;;;;17.70;74.20;;;;;;5052138;28;19979;-63
2022/11/29 18:29:53;;;;;;;;;;;17.70;74.20;;;;;;5049026;28;19952;-64
2022/11/29 18:32:20;;;;;;;;;;;17.70;74.20;;;;;;5041685;28;19986;-64
2022/11/29 18:34:46;;;;;;;;;;;17.70;75.00;;;;;;5053167;28;19931;-64
2022/11/29 18:37:13;;;;;;;;;;;17.60;75.00;;;;;;5052328;28;19936;-63
2022/11/29 18:39:40;;;;;;;;;;;17.60;75.50;;;;;;5054076;28;19909;-64
2022/11/29 18:42:06;;;;;;;;;;;17.60;75.90;;;;;;5056723;28;19912;-64
2022/11/29 18:44:33;;;;;;;;;;;17.60;75.70;;;;;;5054433;28;19983;-63
2022/11/29 18:46:59;;;;;;;;;;;17.60;75.90;;;;;;5056362;28;19960;-64
2022/11/29 18:49:26;;;;;;;;;;;17.50;75.80;;;;;;5054213;28;20402;-64
2022/11/29 18:51:53;;;;;;;;;;;17.50;76.00;;;;;;5054733;28;20256;-64
2022/11/29 18:54:19;;;;;;;;;;;17.40;75.10;;;;;;5039144;28;20282;-64
2022/11/29 18:56:46;;;;;;;;;;;17.40;74.80;;;;;;5052201;28;20373;-64
2022/11/29 18:59:15;;;;;;;;;;;17.30;75.10;;;;;;5067510;28;19932;-64
2022/11/29 19:01:42;;;;;;;;;;;17.40;75.20;;;;;;5052072;28;19916;-64
2022/11/29 19:04:09;;;;;;;;;;;17.40;75.50;;;;;;5067297;28;19970;-64
2022/11/29 19:06:36;;;;;;;;;;;17.30;75.60;;;;;;5052102;28;19916;-63
2022/11/29 19:09:03;;;;;;;;;;;17.30;75.60;;;;;;5052037;28;19916;-64
2022/11/29 19:11:30;;;;;;;;;;;17.30;75.80;;;;;;5050507;28;20006;-64
2022/11/29 19:14:00;;;;;;;;;;;17.30;76.00;;;;;;5051928;28;19912;-64
2022/11/29 19:16:27;;;;;;;;;;;17.30;76.60;;;;;;5051865;28;19952;-64
2022/11/29 19:18:54;;;;;;;;;;;17.30;76.90;;;;;;5051805;28;19990;-64
2022/11/29 19:21:21;;;;;;;;;;;17.30;77.80;;;;;;5051536;28;20011;-64
2022/11/29 19:24:12;;;;;;;;;;;17.30;77.20;;;;;;5051992;28;20293;-64
2022/11/29 19:26:38;;;;;;;;;;;17.20;77.80;;;;;;5051805;28;19963;-64
2022/11/29 19:29:05;;;;;;;;;;;17.30;77.30;;;;;;5051708;28;20344;-64
2022/11/29 19:31:31;;;;;;;;;;;17.20;77.60;;;;;;5051656;28;19913;-63
2022/11/29 19:33:58;;;;;;;;;;;17.20;78.00;;;;;;5051560;28;19909;-64
2022/11/29 19:36:29;;;;;;;;;;;17.20;77.90;;;;;;5051554;28;19916;-64